Time;durP1;ratioP1;P1;durP2;ratioP2;P2;SDS_P1;SDS_P2;PMS_P1;PMS_P2;Temp;Humidity;BMP_temperature;BMP_pressure;BME280_temperature;BME280_humidity;BME280_pressure;Samples;Min_cycle;Max_cycle;Signal;HPM_P1;HPM_P2
2022/05/06 00:01:30;;;;;;;6.10;2.50;;;;;;;6.46;55.40;101311.93;1779360;79;20991;-66
2022/05/06 00:03:57;;;;;;;4.37;2.40;;;;;;;6.43;55.46;101312.09;1797290;79;20945;-66
2022/05/06 00:06:24;;;;;;;4.58;2.55;;;;;;;6.38;55.56;101320.19;1772151;79;21962;-66
2022/05/06 00:08:52;;;;;;;4.12;2.40;;;;;;;6.35;55.69;101312.90;1795196;80;21034;-66
2022/05/06 00:11:19;;;;;;;5.22;2.47;;;;;;;6.30;55.75;101316.61;1784430;80;21007;-66
2022/05/06 00:13:46;;;;;;;4.85;2.40;;;;;;;6.28;55.80;101318.92;1802739;78;21020;-65
2022/05/06 00:16:13;;;;;;;3.92;2.47;;;;;;;6.26;55.90;101323.36;1799837;78;20927;-65
2022/05/06 00:18:42;;;;;;;6.87;2.47;;;;;;;6.23;56.04;101326.98;1802621;78;21907;-67
2022/05/06 00:21:09;;;;;;;7.30;2.65;;;;;;;6.20;56.17;101331.53;1797178;78;20998;-67
2022/05/06 00:23:37;;;;;;;5.55;2.85;;;;;;;6.18;56.27;101327.67;1776837;79;20964;-65
2022/05/06 00:26:05;;;;;;;8.45;2.50;;;;;;;6.16;56.34;101329.48;1809927;78;20995;-65
2022/05/06 00:28:34;;;;;;;6.22;2.80;;;;;;;6.11;56.54;101330.64;1823486;78;20986;-65
2022/05/06 00:31:02;;;;;;;5.35;2.60;;;;;;;6.06;56.72;101333.92;1784336;80;22738;-65
2022/05/06 00:33:32;;;;;;;5.12;2.58;;;;;;;6.00;56.79;101336.38;1803039;78;20968;-65
2022/05/06 00:36:02;;;;;;;5.28;2.50;;;;;;;5.96;56.91;101336.10;1808328;78;21457;-65
2022/05/06 00:38:29;;;;;;;6.30;2.55;;;;;;;5.93;57.09;101334.94;1807624;78;21465;-65
2022/05/06 00:40:56;;;;;;;7.20;2.42;;;;;;;5.89;57.21;101337.28;1750014;80;20965;-65
2022/05/06 00:43:28;;;;;;;5.42;2.60;;;;;;;5.85;57.33;101340.95;1791817;78;21939;-65
2022/05/06 00:45:55;;;;;;;8.63;2.60;;;;;;;5.81;57.44;101341.55;1797976;78;22278;-66
2022/05/06 00:48:31;;;;;;;7.03;2.70;;;;;;;5.80;57.57;101340.31;1794535;80;20992;-64
2022/05/06 00:51:04;;;;;;;4.28;2.50;;;;;;;5.77;57.69;101340.42;1786629;80;21016;-65
2022/05/06 00:53:31;;;;;;;4.62;2.90;;;;;;;5.75;57.82;101343.13;1769094;78;21375;-65
2022/05/06 00:55:58;;;;;;;6.60;2.75;;;;;;;5.71;57.89;101343.73;1793196;78;21826;-66
2022/05/06 00:58:30;;;;;;;5.65;2.80;;;;;;;5.69;58.00;101345.57;1794103;78;21432;-65
2022/05/06 01:00:58;;;;;;;5.50;2.90;;;;;;;5.67;58.14;101342.14;1787636;78;21081;-65
2022/05/06 01:03:25;;;;;;;5.30;2.60;;;;;;;5.66;58.24;101341.75;1763544;81;20952;-65
2022/05/06 01:05:53;;;;;;;6.12;2.80;;;;;;;5.63;58.29;101341.05;1785106;78;21027;-65
2022/05/06 01:08:20;;;;;;;6.50;2.50;;;;;;;5.61;58.33;101341.12;1793938;78;22837;-65
2022/05/06 01:10:49;;;;;;;5.10;2.60;;;;;;;5.59;58.52;101341.62;1768249;78;21574;-65
2022/05/06 01:13:18;;;;;;;7.37;2.50;;;;;;;5.60;58.56;101343.34;1796403;78;21048;-65
2022/05/06 01:15:48;;;;;;;4.00;2.62;;;;;;;5.58;58.58;101336.45;1796765;78;21507;-65
2022/05/06 01:18:17;;;;;;;5.40;2.92;;;;;;;5.58;58.68;101335.13;1805783;77;21105;-66
2022/05/06 01:20:51;;;;;;;5.37;2.35;;;;;;;5.57;58.71;101338.22;1794795;78;21941;-66
2022/05/06 01:23:20;;;;;;;5.58;2.55;;;;;;;5.58;58.81;101339.91;1793624;78;21019;-66
2022/05/06 01:25:47;;;;;;;7.70;2.90;;;;;;;5.58;58.92;101340.38;1793439;78;21414;-69
2022/05/06 01:28:14;;;;;;;5.47;2.75;;;;;;;5.56;58.99;101339.59;1789734;78;20936;-66
2022/05/06 01:30:48;;;;;;;5.42;2.70;;;;;;;5.56;59.08;101347.00;1752125;81;21055;-65
2022/05/06 01:33:21;;;;;;;5.53;2.40;;;;;;;5.55;59.19;101343.14;1754884;80;21817;-65
2022/05/06 01:35:53;;;;;;;5.60;2.90;;;;;;;5.56;59.23;101346.15;1755695;80;21042;-66
2022/05/06 01:38:41;;;;;;;5.87;2.42;;;;;;;5.55;59.32;101340.06;1752064;81;21027;-66
2022/05/06 01:41:21;;;;;;;6.12;2.70;;;;;;;5.53;59.45;101341.90;1746230;81;21097;-65
2022/05/06 01:44:01;;;;;;;5.75;2.40;;;;;;;5.51;59.52;101341.13;1708599;83;21022;-65
2022/05/06 01:46:29;;;;;;;4.97;2.67;;;;;;;5.49;59.62;101347.32;1735295;80;22064;-65
2022/05/06 01:49:00;;;;;;;6.72;2.65;;;;;;;5.46;59.75;101339.99;1750743;80;21012;-65
2022/05/06 01:51:29;;;;;;;6.50;2.58;;;;;;;5.45;59.84;101345.30;1740076;81;20990;-65
2022/05/06 01:53:57;;;;;;;6.28;2.55;;;;;;;5.44;59.93;101347.07;1693169;84;20973;-65
2022/05/06 01:56:25;;;;;;;7.95;2.83;;;;;;;5.44;60.01;101343.60;1725413;80;21024;-65
2022/05/06 01:58:55;;;;;;;4.72;2.67;;;;;;;5.44;60.07;101348.38;1754911;80;21850;-65
2022/05/06 02:01:22;;;;;;;8.68;2.87;;;;;;;5.44;60.17;101348.84;1750452;81;21005;-65
2022/05/06 02:06:38;;;;;;;6.08;2.75;;;;;;;5.45;60.36;101355.33;1755948;80;21062;-67
2022/05/06 02:09:10;;;;;;;4.20;2.80;;;;;;;5.44;60.40;101356.24;1701128;83;21538;-65
2022/05/06 02:11:39;;;;;;;5.15;2.65;;;;;;;5.44;60.46;101359.33;1742843;80;21870;-65
2022/05/06 02:14:07;;;;;;;6.42;2.60;;;;;;;5.42;60.57;101359.85;1754574;80;20957;-65
2022/05/06 02:16:39;;;;;;;4.80;2.77;;;;;;;5.41;60.63;101360.77;1729880;81;21064;-65
2022/05/06 02:19:24;;;;;;;5.33;2.50;;;;;;;5.42;60.81;101358.54;1754379;81;20961;-65
2022/05/06 02:22:02;;;;;;;9.83;2.98;;;;;;;5.40;60.91;101360.35;1718741;81;21063;-65
2022/05/06 02:24:41;;;;;;;5.20;3.00;;;;;;;5.39;60.98;101369.98;1719068;83;22920;-65
2022/05/06 02:27:27;;;;;;;4.62;2.70;;;;;;;5.39;61.04;101375.68;1770530;80;20948;-66
2022/05/06 02:35:29;;;;;;;6.42;2.75;;;;;;;5.40;61.36;101383.92;1763746;80;21093;-66
2022/05/06 02:37:57;;;;;;;8.38;2.80;;;;;;;5.41;61.42;101383.04;1789844;80;21809;-65
2022/05/06 02:40:27;;;;;;;5.03;2.85;;;;;;;5.39;61.58;101380.92;1756039;80;20995;-65
2022/05/06 02:42:55;;;;;;;5.70;2.87;;;;;;;5.40;61.69;101381.31;1798724;78;20989;-66
2022/05/06 02:45:23;;;;;;;6.78;2.87;;;;;;;5.39;61.84;101387.01;1767388;79;20999;-65
2022/05/06 02:47:51;;;;;;;5.08;2.90;;;;;;;5.42;61.93;101388.67;1782616;78;21463;-66
2022/05/06 02:50:18;;;;;;;7.60;3.12;;;;;;;5.44;62.08;101394.23;1806150;79;21774;-66
2022/05/06 02:52:46;;;;;;;7.15;3.37;;;;;;;5.46;62.22;101392.39;1795897;79;21371;-66
2022/05/06 02:55:13;;;;;;;9.55;3.17;;;;;;;5.51;62.38;101392.68;1796008;78;21050;-65
2022/05/06 02:57:40;;;;;;;6.33;3.35;;;;;;;5.54;62.53;101397.32;1796082;79;21016;-65
2022/05/06 03:00:09;;;;;;;7.45;3.22;;;;;;;5.56;62.74;101390.70;1806077;79;21383;-66
2022/05/06 03:02:38;;;;;;;5.05;3.15;;;;;;;5.57;62.82;101393.25;1798665;78;21039;-66
2022/05/06 03:05:08;;;;;;;8.38;3.00;;;;;;;5.61;62.88;101394.84;1787845;79;20955;-64
2022/05/06 03:07:38;;;;;;;3.72;2.60;;;;;;;5.68;63.04;101410.67;1765068;79;21019;-64
2022/05/06 03:10:07;;;;;;;5.83;3.10;;;;;;;5.74;63.21;101401.25;1767184;79;21350;-64
2022/05/06 03:12:37;;;;;;;4.67;3.17;;;;;;;5.83;63.31;101403.94;1767721;79;21477;-66
2022/05/06 03:15:09;;;;;;;;;;;;;;;5.92;63.25;101401.41;1781162;78;21906;-65
2022/05/06 03:17:38;;;;;;;5.17;3.20;;;;;;;6.00;63.21;101409.80;1757979;81;20205;-65
2022/05/06 03:20:12;;;;;;;4.78;2.87;;;;;;;6.13;63.24;101407.48;1758569;81;21046;-66
2022/05/06 03:22:46;;;;;;;4.42;3.10;;;;;;;6.27;63.32;101415.14;1758241;80;21007;-66
2022/05/06 03:25:14;;;;;;;6.25;3.05;;;;;;;6.38;63.28;101416.43;1792973;78;20978;-65
2022/05/06 03:30:30;;;;;;;6.15;3.00;;;;;;;6.62;63.07;101424.94;1784989;79;21019;-65
2022/05/06 03:33:09;;;;;;;4.53;2.92;;;;;;;6.73;62.96;101426.14;1762957;80;21094;-64
2022/05/06 03:35:38;;;;;;;4.92;2.42;;;;;;;6.85;62.89;101424.27;1787098;79;20988;-65
2022/05/06 03:38:06;;;;;;;8.05;2.35;;;;;;;6.99;62.85;101426.23;1805514;79;21032;-65
2022/05/06 03:40:34;;;;;;;4.28;2.80;;;;;;;7.13;62.72;101428.19;1782707;79;21896;-66
2022/05/06 03:43:02;;;;;;;8.00;2.90;;;;;;;7.25;62.61;101426.77;1799667;78;21513;-65
2022/05/06 03:45:30;;;;;;;5.22;2.65;;;;;;;7.37;62.42;101428.78;1803280;79;21505;-67
2022/05/06 03:47:59;;;;;;;10.93;2.80;;;;;;;7.49;62.14;101426.00;1735278;81;20959;-65
2022/05/06 03:53:14;;;;;;;5.60;2.70;;;;;;;7.72;61.88;101430.95;1716578;81;21906;-66
2022/05/06 03:55:42;;;;;;;7.85;2.80;;;;;;;7.85;61.58;101428.56;1738688;79;21515;-67
2022/05/06 03:58:11;;;;;;;6.08;2.95;;;;;;;7.97;61.27;101426.61;1781026;79;21027;-66
2022/05/06 04:00:39;;;;;;;6.58;2.85;;;;;;;8.08;61.03;101424.27;1797359;79;21006;-66
2022/05/06 04:03:06;;;;;;;5.62;2.90;;;;;;;8.17;60.80;101417.67;1790505;79;21466;-66
2022/05/06 04:05:35;;;;;;;8.70;2.87;;;;;;;8.25;60.54;101424.23;1764234;81;20952;-66
2022/05/06 04:08:07;;;;;;;9.53;2.80;;;;;;;8.36;60.28;101421.53;1779557;79;21036;-68
2022/05/06 04:10:34;;;;;;;8.35;2.90;;;;;;;8.47;60.04;101425.75;1785614;80;21327;-66
2022/05/06 04:13:05;;;;;;;6.05;2.80;;;;;;;8.60;59.73;101425.49;1782428;79;21051;-66
2022/05/06 04:15:33;;;;;;;4.15;2.22;;;;;;;8.73;59.54;101425.66;1789913;79;20951;-66
2022/05/06 04:18:01;;;;;;;6.87;2.52;;;;;;;8.85;59.38;101429.77;1787216;79;21837;-66
2022/05/06 04:23:33;;;;;;;7.45;2.47;;;;;;;9.17;58.96;101435.91;1782394;80;21019;-66
2022/05/06 04:26:07;;;;;;;6.85;2.50;;;;;;;9.32;58.66;101430.20;1737336;82;20983;-66
2022/05/06 04:28:53;;;;;;;4.92;2.80;;;;;;;9.51;58.28;101437.91;1722520;81;21016;-66
2022/05/06 04:31:21;;;;;;;7.20;2.25;;;;;;;9.64;57.76;101434.92;1710978;84;21848;-66
2022/05/06 04:33:50;;;;;;;15.48;2.72;;;;;;;9.78;57.07;101436.77;1727748;81;21047;-67
2022/05/06 04:36:26;;;;;;;5.97;2.47;;;;;;;9.90;56.41;101433.39;1741164;81;20972;-67
2022/05/06 04:38:55;;;;;;;6.58;2.90;;;;;;;10.04;55.23;101432.59;1719687;82;21009;-66
2022/05/06 04:41:23;;;;;;;9.13;2.60;;;;;;;10.17;54.70;101435.32;1686454;83;21455;-66
2022/05/06 04:43:50;;;;;;;6.10;2.80;;;;;;;10.28;53.72;101437.71;1739779;81;21851;-67
2022/05/06 04:46:18;;;;;;;4.25;2.52;;;;;;;10.41;52.87;101436.47;1723869;83;21006;-67
2022/05/06 04:48:45;;;;;;;4.97;2.27;;;;;;;10.50;51.64;101433.73;1730216;81;21398;-67
2022/05/06 04:51:16;;;;;;;6.40;2.27;;;;;;;10.60;50.46;101430.90;1738432;82;20960;-67
2022/05/06 04:53:45;;;;;;;6.37;2.33;;;;;;;10.68;49.57;101432.59;1725251;82;21512;-67
2022/05/06 04:56:12;;;;;;;7.78;2.60;;;;;;;10.77;49.53;101445.23;1713045;81;22667;-67
2022/05/06 04:58:41;;;;;;;4.65;2.60;;;;;;;10.85;48.68;101445.59;1722331;83;21547;-67
2022/05/06 05:01:09;;;;;;;8.68;2.37;;;;;;;10.94;47.72;101448.61;1712315;82;21063;-67
2022/05/06 05:03:37;;;;;;;11.73;2.45;;;;;;;11.02;47.27;101447.64;1730497;82;21449;-67
2022/05/06 05:06:07;;;;;;;4.35;2.70;;;;;;;11.08;46.03;101443.27;1710078;82;21534;-67
2022/05/06 05:08:35;;;;;;;7.58;3.00;;;;;;;11.16;45.44;101436.54;1732544;82;21820;-68
2022/05/06 05:11:05;;;;;;;7.45;2.70;;;;;;;11.25;45.53;101440.86;1720912;82;21487;-68
2022/05/06 05:13:38;;;;;;;6.92;3.08;;;;;;;11.32;45.61;101440.84;1693043;82;21008;-68
2022/05/06 05:16:05;;;;;;;7.00;3.08;;;;;;;11.43;45.56;101439.18;1709615;83;21080;-68
2022/05/06 05:18:34;;;;;;;7.55;2.92;;;;;;;11.55;45.30;101443.28;1688917;83;21064;-69
2022/05/06 05:21:03;;;;;;;9.00;2.70;;;;;;;11.64;45.19;101442.19;1712257;82;21766;-67
2022/05/06 05:23:31;;;;;;;7.12;2.58;;;;;;;11.75;44.63;101448.09;1693995;82;21514;-67
2022/05/06 05:25:59;;;;;;;6.15;2.12;;;;;;;11.83;42.92;101448.45;1708714;82;21094;-70
2022/05/06 05:28:26;;;;;;;6.12;2.22;;;;;;;11.90;42.29;101444.92;1741092;81;21008;-68
2022/05/06 05:30:55;;;;;;;6.78;2.70;;;;;;;11.96;42.52;101445.34;1721289;83;21071;-69
2022/05/06 05:33:23;;;;;;;6.05;2.83;;;;;;;12.01;42.47;101444.56;1714436;83;21779;-68
2022/05/06 05:35:52;;;;;;;7.75;2.58;;;;;;;12.04;42.72;101443.50;1714865;83;21059;-68
2022/05/06 05:38:20;;;;;;;4.75;2.52;;;;;;;12.12;42.69;101444.30;1737423;81;21438;-68
2022/05/06 05:40:48;;;;;;;4.92;2.60;;;;;;;12.19;42.69;101438.48;1690169;82;21039;-68
2022/05/06 05:48:53;;;;;;;4.62;2.62;;;;;;;12.43;42.30;101445.18;1722682;82;22183;-68
2022/05/06 05:51:20;;;;;;;4.40;2.80;;;;;;;12.51;42.09;101444.17;1700235;83;21018;-69
2022/05/06 05:53:50;;;;;;;6.90;2.50;;;;;;;12.59;42.20;101447.13;1719663;83;21028;-68
2022/05/06 05:56:19;;;;;;;4.08;2.10;;;;;;;12.65;42.25;101446.34;1727692;82;21510;-69
2022/05/06 05:58:49;;;;;;;6.30;1.92;;;;;;;12.74;41.91;101445.21;1727463;83;22796;-68
2022/05/06 06:01:18;;;;;;;8.40;1.52;;;;;;;12.80;41.04;101446.55;1725196;82;21059;-68
2022/05/06 06:03:46;;;;;;;8.10;1.70;;;;;;;12.85;38.51;101449.26;1714590;83;21116;-68
2022/05/06 06:06:15;;;;;;;3.52;1.60;;;;;;;12.90;38.54;101447.11;1718174;83;21187;-68
2022/05/06 06:08:45;;;;;;;5.53;1.50;;;;;;;13.00;38.10;101447.77;1718701;83;21088;-70
2022/05/06 06:11:13;;;;;;;4.78;1.50;;;;;;;13.06;37.47;101445.53;1718985;83;21958;-66
2022/05/06 06:13:44;;;;;;;3.33;1.50;;;;;;;13.11;37.17;101439.88;1720689;83;21024;-69
2022/05/06 06:16:13;;;;;;;3.90;1.90;;;;;;;13.17;37.17;101445.59;1722486;83;21518;-71
2022/05/06 06:18:41;;;;;;;3.45;1.60;;;;;;;13.24;37.09;101446.51;1722379;83;21056;-69
2022/05/06 06:21:08;;;;;;;4.90;1.90;;;;;;;13.30;37.35;101451.34;1702382;83;21069;-69
2022/05/06 06:23:36;;;;;;;3.33;1.80;;;;;;;13.40;37.43;101452.36;1696326;83;21939;-68
2022/05/06 06:26:03;;;;;;;3.65;1.80;;;;;;;13.51;39.93;101451.11;1693363;84;21055;-69
2022/05/06 06:28:31;;;;;;;5.83;2.10;;;;;;;13.57;38.13;101449.30;1746578;80;21005;-70
2022/05/06 06:30:58;;;;;;;5.08;2.10;;;;;;;13.65;39.25;101442.09;1757634;80;21364;-70
2022/05/06 06:33:26;;;;;;;4.10;2.10;;;;;;;13.75;40.66;101439.95;1758402;80;21007;-70
2022/05/06 06:35:54;;;;;;;11.00;2.22;;;;;;;13.82;43.00;101438.17;1761047;80;21847;-68
2022/05/06 06:38:22;;;;;;;6.33;2.70;;;;;;;13.86;43.23;101436.48;1734201;81;21492;-68
2022/05/06 06:40:50;;;;;;;7.70;2.47;;;;;;;13.90;43.58;101439.28;1750424;80;20996;-70
2022/05/06 06:43:18;;;;;;;10.40;2.60;;;;;;;13.92;44.13;101436.50;1756920;81;21111;-69
2022/05/06 06:45:47;;;;;;;4.05;2.20;;;;;;;14.00;43.90;101435.44;1755335;81;20993;-69
2022/05/06 06:48:19;;;;;;;4.22;2.10;;;;;;;14.00;43.50;101439.42;1754649;81;21856;-69
2022/05/06 06:50:48;;;;;;;8.35;2.55;;;;;;;13.96;44.45;101437.47;1746070;81;21061;-69
2022/05/06 06:53:23;;;;;;;6.08;2.50;;;;;;;13.99;44.17;101441.23;1757506;80;21048;-69
2022/05/06 06:55:50;;;;;;;4.00;2.10;;;;;;;14.10;44.35;101447.05;1758000;81;21033;-69
2022/05/06 06:58:19;;;;;;;3.70;2.30;;;;;;;14.19;44.87;101449.48;1746240;80;21047;-68
2022/05/06 07:00:47;;;;;;;4.70;2.22;;;;;;;14.28;44.87;101448.73;1748626;80;22013;-68
2022/05/06 07:03:14;;;;;;;5.55;2.22;;;;;;;14.30;44.68;101452.14;1756561;81;20976;-68
2022/05/06 07:14:02;;;;;;;6.30;2.10;;;;;;;14.53;43.40;101449.88;1707847;81;21887;-67
2022/05/06 07:16:30;;;;;;;5.00;2.45;;;;;;;14.52;41.60;101448.67;1754339;80;21328;-68
2022/05/06 07:18:59;;;;;;;7.67;2.30;;;;;;;14.54;41.40;101453.38;1745901;80;33830;-68
2022/05/06 07:21:30;;;;;;;6.35;2.27;;;;;;;14.65;42.27;101458.69;1725264;83;21035;-67
2022/05/06 07:23:57;;;;;;;5.58;1.90;;;;;;;14.77;41.53;101455.08;1757437;81;21019;-68
2022/05/06 07:26:25;;;;;;;5.25;2.10;;;;;;;14.91;41.31;101452.62;1713651;83;21857;-66
2022/05/06 07:28:52;;;;;;;9.15;2.02;;;;;;;15.03;40.82;101458.77;1726491;81;21034;-69
2022/05/06 07:31:20;;;;;;;4.35;2.02;;;;;;;15.03;40.37;101458.77;1764521;80;21015;-69
2022/05/06 07:33:49;;;;;;;6.53;1.92;;;;;;;15.10;40.92;101462.62;1758329;80;22193;-68
2022/05/06 07:36:16;;;;;;;6.47;1.75;;;;;;;15.10;39.90;101463.96;1752369;80;21027;-68
2022/05/06 07:38:44;;;;;;;6.75;2.60;;;;;;;15.14;38.36;101460.91;1789782;80;21929;-68
2022/05/06 07:41:12;;;;;;;3.87;2.02;;;;;;;15.12;38.62;101464.67;1759370;80;21052;-68
2022/05/06 07:43:39;;;;;;;5.15;2.05;;;;;;;15.10;38.62;101469.28;1757267;81;21049;-70
2022/05/06 07:46:09;;;;;;;3.70;1.82;;;;;;;15.03;39.85;101464.09;1744989;80;21014;-67
2022/05/06 07:48:37;;;;;;;2.98;1.90;;;;;;;15.10;39.39;101461.30;1757765;80;21493;-68
2022/05/06 07:51:05;;;;;;;4.47;2.08;;;;;;;15.16;39.05;101466.14;1750614;80;21923;-68
2022/05/06 07:53:32;;;;;;;6.53;2.00;;;;;;;15.19;38.33;101453.91;1756930;80;21006;-68
2022/05/06 07:56:00;;;;;;;6.75;1.90;;;;;;;15.18;38.68;101454.39;1756881;80;21558;-68
2022/05/06 07:58:30;;;;;;;6.65;2.10;;;;;;;15.27;37.82;101456.78;1755615;81;21093;-70
2022/05/06 08:00:57;;;;;;;3.92;1.90;;;;;;;15.32;38.81;101462.56;1758210;81;21041;-70
2022/05/06 08:06:13;;;;;;;3.17;1.67;;;;;;;15.38;35.90;101467.39;1727725;83;21187;-68
2022/05/06 08:08:42;;;;;;;3.15;1.60;;;;;;;15.49;34.50;101461.18;1728229;81;21034;-70
2022/05/06 08:11:09;;;;;;;5.42;1.47;;;;;;;15.62;36.35;101455.21;1726606;82;21047;-69
2022/05/06 08:13:38;;;;;;;6.60;1.50;;;;;;;15.80;35.30;101458.16;1719353;81;20999;-68
2022/05/06 08:16:05;;;;;;;2.17;1.30;;;;;;;15.87;33.99;101455.83;1758519;81;21980;-69
2022/05/06 08:18:33;;;;;;;5.30;1.82;;;;;;;15.88;34.26;101462.36;1756560;81;21041;-68
2022/05/06 08:21:01;;;;;;;5.08;1.90;;;;;;;15.96;33.79;101466.56;1756737;80;21013;-69
2022/05/06 08:23:29;;;;;;;3.05;1.40;;;;;;;16.02;33.94;101460.72;1757703;81;21024;-69
2022/05/06 08:25:57;;;;;;;2.10;1.42;;;;;;;16.13;34.85;101465.62;1757095;81;21051;-69
2022/05/06 08:28:27;;;;;;;7.05;1.77;;;;;;;16.20;32.33;101456.09;1761009;80;21802;-68
2022/05/06 08:30:55;;;;;;;4.22;1.70;;;;;;;16.16;32.84;101461.34;1776753;80;21024;-68
2022/05/06 08:33:25;;;;;;;3.58;1.30;;;;;;;16.19;31.94;101476.58;1752148;81;21078;-68
2022/05/06 08:35:52;;;;;;;2.90;1.60;;;;;;;16.21;30.94;101464.45;1732515;82;20987;-70
2022/05/06 08:38:19;;;;;;;5.00;1.60;;;;;;;16.19;30.89;101467.25;1736012;81;21538;-69
2022/05/06 08:40:49;;;;;;;3.50;1.30;;;;;;;16.19;30.23;101466.41;1756740;81;21792;-69
2022/05/06 08:43:17;;;;;;;4.58;1.80;;;;;;;16.21;30.16;101465.78;1766613;80;20959;-69
2022/05/06 08:51:17;;;;;;;3.40;2.00;;;;;;;16.35;28.80;101466.78;1758494;81;21061;-69
2022/05/06 08:53:48;;;;;;;5.65;1.87;;;;;;;16.45;30.11;101456.17;1714213;81;21845;-71
2022/05/06 08:56:17;;;;;;;4.10;2.10;;;;;;;16.57;29.42;101459.94;1707657;81;20967;-70
2022/05/06 08:58:47;;;;;;;4.00;2.87;;;;;;;16.67;29.07;101456.46;1757295;81;21503;-69
2022/05/06 09:01:17;;;;;;;7.30;2.77;;;;;;;16.78;28.90;101465.72;1758756;81;21087;-70
2022/05/06 09:03:47;;;;;;;3.98;2.35;;;;;;;16.74;28.10;101463.83;1758239;81;21000;-72
2022/05/06 09:06:28;;;;;;;4.92;2.40;;;;;;;16.68;28.86;101463.48;1749851;80;22691;-72
2022/05/06 09:08:59;;;;;;;6.83;2.45;;;;;;;16.69;27.98;101456.70;1742307;81;21084;-71
2022/05/06 09:14:20;;;;;;;5.65;2.25;;;;;;;16.72;27.80;101464.46;1754792;81;21075;-69
2022/05/06 09:16:49;;;;;;;6.58;2.02;;;;;;;16.69;28.45;101459.86;1752396;81;21459;-70
2022/05/06 09:19:25;;;;;;;4.50;2.20;;;;;;;16.68;28.26;101457.69;1756301;80;21796;-69
2022/05/06 09:22:14;;;;;;;2.67;1.95;;;;;;;16.83;27.85;101461.69;1757469;80;21032;-70
2022/05/06 09:24:43;;;;;;;5.92;2.10;;;;;;;16.94;28.74;101454.55;1725373;83;21055;-69
2022/05/06 09:27:13;;;;;;;3.42;1.95;;;;;;;17.06;28.35;101455.62;1729465;81;21028;-70
2022/05/06 09:29:43;;;;;;;3.87;1.90;;;;;;;17.06;28.14;101451.62;1718729;83;21045;-70
2022/05/06 09:32:23;;;;;;;3.30;2.10;;;;;;;17.07;28.41;101453.80;1743175;82;22659;-69
2022/05/06 09:34:58;;;;;;;3.15;1.80;;;;;;;17.13;28.23;101451.92;1743972;82;21019;-68
2022/05/06 09:37:37;;;;;;;2.77;1.72;;;;;;;17.26;27.94;101463.17;1734407;82;21385;-68
2022/05/06 09:40:12;;;;;;;4.03;1.52;;;;;;;17.24;28.50;101461.63;1701455;84;21063;-67
2022/05/06 09:42:43;;;;;;;3.35;1.92;;;;;;;17.23;28.61;101455.94;1714191;83;21031;-68
2022/05/06 09:45:14;;;;;;;4.42;1.45;;;;;;;17.39;28.74;101453.08;1716913;82;22395;-68
2022/05/06 09:47:43;;;;;;;2.60;1.70;;;;;;;17.62;29.86;101457.64;1741952;82;21499;-74
2022/05/06 09:50:11;;;;;;;5.03;2.17;;;;;;;17.79;28.35;101459.30;1743725;82;21070;-70
2022/05/06 09:52:40;;;;;;;4.97;1.90;;;;;;;17.89;28.69;101454.78;1736928;82;21041;-69
2022/05/06 09:55:09;;;;;;;4.45;1.80;;;;;;;18.00;27.85;101458.62;1733821;82;22103;-68
2022/05/06 09:57:37;;;;;;;4.58;1.70;;;;;;;18.08;27.85;101456.58;1734561;82;21814;-69
2022/05/06 10:00:07;;;;;;;8.90;1.72;;;;;;;18.06;27.73;101446.53;1742347;80;21079;-68
2022/05/06 10:02:37;;;;;;;6.85;1.85;;;;;;;18.07;27.44;101442.37;1743057;82;21067;-68
2022/05/06 10:05:06;;;;;;;4.55;1.75;;;;;;;18.10;28.12;101439.39;1739840;82;21027;-69
2022/05/06 10:07:38;;;;;;;2.30;1.50;;;;;;;18.23;26.98;101445.75;1738165;81;20989;-69
2022/05/06 10:10:12;;;;;;;4.30;2.00;;;;;;;18.20;28.19;101434.86;1742555;82;21824;-70
2022/05/06 10:12:43;;;;;;;4.03;2.20;;;;;;;18.23;27.87;101439.06;1732343;82;29609;-70
2022/05/06 10:15:13;;;;;;;4.55;1.90;;;;;;;18.32;27.59;101432.84;1738760;82;21392;-69
2022/05/06 10:17:55;;;;;;;5.28;1.92;;;;;;;18.36;27.28;101428.06;1713942;82;21408;-68
2022/05/06 10:20:42;;;;;;;4.87;1.80;;;;;;;18.33;27.27;101421.16;1723796;82;21663;-70
2022/05/06 10:23:13;;;;;;;3.25;2.17;;;;;;;18.55;27.28;101423.97;1744026;82;21790;-70
2022/05/06 10:25:49;;;;;;;8.28;2.12;;;;;;;18.55;26.72;101418.12;1742107;82;20981;-70
2022/05/06 10:34:29;;;;;;;12.63;2.30;;;;;;;18.78;27.63;101413.23;1736174;82;21095;-75
2022/05/06 10:37:02;;;;;;;5.00;1.77;;;;;;;19.03;27.18;101417.53;1727686;81;21913;-71
2022/05/06 10:39:37;;;;;;;2.62;1.70;;;;;;;19.06;26.48;101407.36;1733337;82;21602;-70
2022/05/06 10:42:17;;;;;;;3.37;1.72;;;;;;;19.13;26.18;101403.58;1725204;83;21030;-68
2022/05/06 10:44:53;;;;;;;4.03;1.98;;;;;;;19.06;26.29;101400.66;1735092;82;21038;-69
2022/05/06 10:47:47;;;;;;;7.37;1.87;;;;;;;19.21;27.07;101400.14;1695402;83;21051;-69
2022/05/06 10:50:19;;;;;;;5.37;1.92;;;;;;;19.45;27.27;101391.81;1730851;82;21959;-68
2022/05/06 10:52:47;;;;;;;4.60;1.70;;;;;;;19.60;25.31;101393.48;1725773;82;21005;-70
2022/05/06 10:55:16;;;;;;;3.30;1.60;;;;;;;19.61;25.96;101384.95;1718816;82;21048;-69
2022/05/06 10:57:52;;;;;;;4.25;1.90;;;;;;;19.72;26.44;101386.03;1732441;82;21020;-69
2022/05/06 11:00:21;;;;;;;9.30;2.05;;;;;;;19.80;26.24;101384.75;1740617;81;21040;-69
2022/05/06 11:02:49;;;;;;;3.83;1.60;;;;;;;19.91;26.49;101379.13;1734205;82;21829;-71
2022/05/06 11:05:17;;;;;;;5.15;1.87;;;;;;;20.16;26.40;101373.88;1727762;82;21071;-70
2022/05/06 11:07:49;;;;;;;3.83;1.65;;;;;;;20.34;25.74;101376.48;1735846;82;21162;-70
2022/05/06 11:10:19;;;;;;;7.42;2.20;;;;;;;20.49;25.51;101378.44;1719103;82;21465;-73
2022/05/06 11:12:49;;;;;;;3.92;1.90;;;;;;;20.60;25.16;101377.81;1728349;81;21518;-69
2022/05/06 11:15:18;;;;;;;3.15;1.87;;;;;;;20.58;25.29;101381.50;1731187;82;22096;-71
2022/05/06 11:17:46;;;;;;;5.42;2.15;;;;;;;20.63;24.91;101366.73;1738060;81;21025;-70
2022/05/06 11:20:29;;;;;;;3.50;1.77;;;;;;;20.64;24.54;101365.73;1742033;81;21072;-69
2022/05/06 11:23:04;;;;;;;6.50;2.20;;;;;;;20.64;24.83;101363.88;1729772;82;21067;-70
2022/05/06 11:25:39;;;;;;;7.97;1.80;;;;;;;20.60;24.42;101369.25;1733408;81;21023;-72
2022/05/06 11:28:14;;;;;;;4.60;1.60;;;;;;;20.55;25.17;101360.33;1736596;81;21854;-73
2022/05/06 11:30:44;;;;;;;3.77;1.80;;;;;;;20.52;24.31;101355.30;1736319;80;21047;-70
2022/05/06 11:33:24;;;;;;;9.10;1.87;;;;;;;20.37;23.41;101364.11;1756917;80;21039;-69
2022/05/06 11:36:01;;;;;;;4.60;1.77;;;;;;;20.05;23.62;101347.34;1730468;81;21049;-70
2022/05/06 11:38:39;;;;;;;9.05;1.70;;;;;;;19.82;23.44;101345.72;1744463;80;21066;-69
2022/05/06 11:41:11;;;;;;;3.85;1.65;;;;;;;19.86;25.10;101350.59;1752281;80;21849;-69
2022/05/06 11:43:39;;;;;;;4.08;1.72;;;;;;;19.99;24.35;101345.66;1753031;80;21491;-72
2022/05/06 11:48:53;;;;;;;3.47;1.50;;;;;;;19.85;24.61;101355.61;1756503;80;21018;-70
2022/05/06 11:51:30;;;;;;;5.20;1.42;;;;;;;19.80;24.28;101345.87;1761239;80;21297;-73
2022/05/06 11:53:58;;;;;;;9.03;1.72;;;;;;;19.89;24.21;101335.55;1755630;80;21812;-68
2022/05/06 11:56:27;;;;;;;6.62;1.60;;;;;;;20.10;24.22;101343.19;1751256;80;21012;-69
2022/05/06 11:58:56;;;;;;;5.95;1.60;;;;;;;20.22;23.69;101334.36;1752087;80;21483;-68
2022/05/06 12:01:38;;;;;;;5.72;1.62;;;;;;;20.26;23.20;101331.17;1751549;81;21021;-68
2022/05/06 12:04:05;;;;;;;3.83;1.72;;;;;;;20.18;22.92;101331.67;1760974;80;21086;-71
2022/05/06 12:06:33;;;;;;;2.87;1.50;;;;;;;20.03;23.57;101326.55;1755445;80;21812;-71
2022/05/06 12:09:16;;;;;;;5.67;1.55;;;;;;;20.11;23.68;101329.28;1693216;82;21135;-71
2022/05/06 12:11:44;;;;;;;5.75;1.60;;;;;;;20.37;23.60;101315.81;1714655;81;21003;-70
2022/05/06 12:14:19;;;;;;;2.40;1.60;;;;;;;20.86;23.48;101320.83;1720259;82;21090;-71
2022/05/06 12:17:03;;;;;;;5.15;1.82;;;;;;;21.30;22.06;101312.47;1728079;82;21006;-72
2022/05/06 12:19:44;;;;;;;;;;;;;;;21.47;22.66;101309.27;1747932;80;21963;-73
2022/05/06 12:22:25;;;;;;;2.77;1.55;;;;;;;21.74;23.12;101302.16;1770601;80;21912;-70
2022/05/06 12:24:58;;;;;;;3.30;1.62;;;;;;;21.93;22.56;101310.34;1722901;81;21011;-72
2022/05/06 12:27:33;;;;;;;2.45;1.60;;;;;;;21.85;22.23;101300.45;1722435;82;21045;-70
2022/05/06 12:30:02;;;;;;;3.40;1.80;;;;;;;21.90;22.59;101314.20;1757456;80;21050;-72
2022/05/06 12:32:29;;;;;;;4.33;1.47;;;;;;;21.91;21.72;101311.03;1727623;81;21864;-69
2022/05/06 12:35:07;;;;;;;5.17;1.67;;;;;;;21.69;21.80;101293.76;1747814;81;21045;-71